Time;durP1;ratioP1;P1;durP2;ratioP2;P2;SDS_P1;SDS_P2;PMS_P1;PMS_P2;Temp;Humidity;BMP_temperature;BMP_pressure;BME280_temperature;BME280_humidity;BME280_pressure;Samples;Min_cycle;Max_cycle;Signal;HPM_P1;HPM_P2
2023/10/27 00:00:23;;;;;;;;;;;9.60;99.90;;;;;;5041795;28;19989;-89
2023/10/27 00:02:52;;;;;;;;;;;9.60;99.90;;;;;;5038601;28;19942;-95
2023/10/27 00:05:18;;;;;;;;;;;9.70;99.90;;;;;;5047467;28;19928;-92
2023/10/27 00:07:43;;;;;;;;;;;9.60;99.90;;;;;;5060508;28;19950;-92
2023/10/27 00:10:09;;;;;;;;;;;9.70;99.90;;;;;;5081139;28;19921;-89
2023/10/27 00:12:34;;;;;;;;;;;9.70;99.90;;;;;;5082642;28;19967;-89
2023/10/27 00:15:00;;;;;;;;;;;9.70;99.90;;;;;;5046726;28;19924;-92
2023/10/27 00:17:26;;;;;;;;;;;9.70;99.90;;;;;;5065870;28;19920;-91
2023/10/27 00:19:51;;;;;;;;;;;9.70;99.90;;;;;;5046010;28;19920;-92
2023/10/27 00:22:17;;;;;;;;;;;9.60;99.90;;;;;;5064281;28;20438;-88
2023/10/27 00:24:42;;;;;;;;;;;9.70;99.90;;;;;;5061043;28;20306;-94
2023/10/27 00:27:08;;;;;;;;;;;9.60;99.90;;;;;;5061273;28;19931;-91
2023/10/27 00:29:34;;;;;;;;;;;9.60;99.90;;;;;;5037546;28;19920;-89
2023/10/27 00:32:00;;;;;;;;;;;9.60;99.90;;;;;;5063194;28;20006;-92
2023/10/27 00:34:26;;;;;;;;;;;9.60;99.90;;;;;;5062148;28;19993;-92
2023/10/27 00:36:52;;;;;;;;;;;9.60;99.90;;;;;;5055043;28;19920;-93
2023/10/27 00:39:17;;;;;;;;;;;9.60;99.90;;;;;;5046760;28;19950;-93
2023/10/27 00:41:43;;;;;;;;;;;9.70;99.90;;;;;;5078469;28;19943;-93
2023/10/27 00:44:08;;;;;;;;;;;9.70;99.90;;;;;;5046118;28;19998;-90
2023/10/27 00:46:35;;;;;;;;;;;9.60;99.90;;;;;;5049445;28;19931;-86
2023/10/27 00:49:01;;;;;;;;;;;9.60;99.90;;;;;;5081260;28;20383;-88
2023/10/27 00:51:28;;;;;;;;;;;9.70;99.90;;;;;;5085251;28;19923;-88
2023/10/27 00:53:54;;;;;;;;;;;9.60;99.90;;;;;;5086740;28;20015;-87
2023/10/27 00:56:19;;;;;;;;;;;9.60;99.90;;;;;;5064199;28;20354;-90
2023/10/27 00:58:45;;;;;;;;;;;9.60;99.90;;;;;;5059767;28;19973;-92
2023/10/27 01:01:12;;;;;;;;;;;9.60;99.90;;;;;;5077291;28;19924;-89
2023/10/27 01:03:38;;;;;;;;;;;9.60;99.90;;;;;;5061027;28;19924;-92
2023/10/27 01:06:03;;;;;;;;;;;9.70;99.90;;;;;;5061487;28;20414;-90
2023/10/27 01:08:29;;;;;;;;;;;9.60;99.90;;;;;;5060013;28;19920;-87
2023/10/27 01:10:55;;;;;;;;;;;9.60;99.90;;;;;;5059803;28;19931;-93
2023/10/27 01:13:20;;;;;;;;;;;9.60;99.90;;;;;;5062277;28;20310;-93
2023/10/27 01:15:46;;;;;;;;;;;9.70;99.90;;;;;;5061340;28;19926;-88
2023/10/27 01:18:12;;;;;;;;;;;9.60;99.90;;;;;;5043154;28;19920;-87
2023/10/27 01:20:37;;;;;;;;;;;9.60;99.90;;;;;;5064981;28;19960;-93
2023/10/27 01:23:03;;;;;;;;;;;9.60;99.90;;;;;;5050892;28;19967;-91
2023/10/27 01:25:29;;;;;;;;;;;9.60;99.90;;;;;;5077159;28;19924;-87
2023/10/27 01:27:56;;;;;;;;;;;9.60;99.90;;;;;;5044113;28;19920;-86
2023/10/27 01:30:22;;;;;;;;;;;9.60;99.90;;;;;;5077506;28;19946;-92
2023/10/27 01:32:47;;;;;;;;;;;9.60;99.90;;;;;;5066215;28;19923;-94
2023/10/27 01:35:13;;;;;;;;;;;9.60;99.90;;;;;;5050174;28;19923;-94
2023/10/27 01:37:39;;;;;;;;;;;8.20;99.90;;;;;;5073764;28;19924;-87
2023/10/27 01:40:05;;;;;;;;;;;9.60;99.90;;;;;;5075866;28;20415;-88
2023/10/27 01:42:34;;;;;;;;;;;9.50;99.90;;;;;;5060441;28;20059;-92
2023/10/27 01:45:01;;;;;;;;;;;9.70;99.90;;;;;;5047025;28;19970;-93
2023/10/27 01:47:26;;;;;;;;;;;9.50;99.90;;;;;;5062045;28;20376;-94
2023/10/27 01:49:52;;;;;;;;;;;9.60;99.90;;;;;;5079781;28;19926;-92
2023/10/27 01:52:18;;;;;;;;;;;10.80;99.90;;;;;;5044266;28;20371;-91
2023/10/27 01:54:43;;;;;;;;;;;9.50;99.90;;;;;;5046893;28;19920;-90
2023/10/27 01:57:09;;;;;;;;;;;9.50;99.90;;;;;;5071902;28;20618;-92
2023/10/27 01:59:34;;;;;;;;;;;9.50;99.90;;;;;;5077494;28;19920;-91
2023/10/27 02:02:00;;;;;;;;;;;9.90;99.90;;;;;;5067933;28;20321;-85
2023/10/27 02:04:26;;;;;;;;;;;9.60;99.90;;;;;;5076444;28;19924;-94
2023/10/27 02:06:51;;;;;;;;;;;9.50;99.90;;;;;;5045810;28;19929;-91
2023/10/27 02:09:17;;;;;;;;;;;9.50;99.90;;;;;;5041886;28;19928;-88
2023/10/27 02:11:43;;;;;;;;;;;10.00;99.90;;;;;;5069603;28;19920;-91
2023/10/27 02:14:08;;;;;;;;;;;9.90;99.90;;;;;;5055280;28;20299;-90
2023/10/27 02:16:34;;;;;;;;;;;10.40;99.90;;;;;;5059855;28;19920;-95
2023/10/27 02:18:59;;;;;;;;;;;9.60;99.90;;;;;;5063401;28;20374;-93
2023/10/27 02:21:25;;;;;;;;;;;9.70;99.90;;;;;;5043547;28;19920;-94
2023/10/27 02:23:51;;;;;;;;;;;9.60;99.90;;;;;;5052913;28;20392;-93
2023/10/27 02:26:17;;;;;;;;;;;9.70;99.90;;;;;;5043300;28;19932;-93
2023/10/27 02:28:42;;;;;;;;;;;9.60;99.90;;;;;;5042871;28;19920;-92
2023/10/27 02:31:08;;;;;;;;;;;9.70;99.90;;;;;;5060181;28;19931;-89
2023/10/27 02:33:33;;;;;;;;;;;9.60;99.90;;;;;;5061279;28;20176;-92
2023/10/27 02:35:59;;;;;;;;;;;9.60;99.90;;;;;;5059025;28;19920;-90
2023/10/27 02:38:24;;;;;;;;;;;9.60;99.90;;;;;;5064273;28;19924;-87
2023/10/27 02:40:50;;;;;;;;;;;9.60;99.90;;;;;;5059403;28;19927;-93
2023/10/27 02:43:16;;;;;;;;;;;9.60;99.90;;;;;;5079603;28;19972;-89
2023/10/27 02:45:42;;;;;;;;;;;9.60;99.90;;;;;;5051993;28;19936;-90
2023/10/27 02:48:07;;;;;;;;;;;9.60;99.90;;;;;;5074699;28;19952;-89
2023/10/27 02:50:33;;;;;;;;;;;9.60;99.90;;;;;;5051971;28;20366;-90
2023/10/27 02:52:59;;;;;;;;;;;10.20;99.90;;;;;;5069868;28;19980;-87
2023/10/27 02:55:24;;;;;;;;;;;9.90;99.90;;;;;;5074398;28;20041;-86
2023/10/27 02:57:50;;;;;;;;;;;9.70;99.90;;;;;;5075362;28;19927;-88
2023/10/27 03:00:16;;;;;;;;;;;9.70;99.90;;;;;;5052608;28;20287;-94
2023/10/27 03:02:41;;;;;;;;;;;9.70;99.90;;;;;;5071389;28;19965;-88
2023/10/27 03:05:08;;;;;;;;;;;9.60;99.90;;;;;;5064660;28;19963;-93
2023/10/27 03:07:34;;;;;;;;;;;9.60;99.90;;;;;;5045543;28;19928;-92
2023/10/27 03:09:59;;;;;;;;;;;9.70;99.90;;;;;;5056994;28;20524;-93
2023/10/27 03:12:25;;;;;;;;;;;9.60;99.90;;;;;;5058959;28;19929;-90
2023/10/27 03:14:50;;;;;;;;;;;9.60;99.90;;;;;;5061967;28;19920;-93
2023/10/27 03:17:16;;;;;;;;;;;9.90;99.90;;;;;;5037860;28;20293;-85
2023/10/27 03:19:42;;;;;;;;;;;10.20;99.90;;;;;;5050315;28;20386;-88
2023/10/27 03:22:07;;;;;;;;;;;9.60;99.90;;;;;;5061624;28;19924;-85
2023/10/27 03:24:33;;;;;;;;;;;9.60;99.90;;;;;;5068096;28;19920;-95
2023/10/27 03:26:59;;;;;;;;;;;9.80;99.90;;;;;;5045961;28;19927;-94
2023/10/27 03:29:25;;;;;;;;;;;9.60;99.90;;;;;;5042430;28;19920;-93
2023/10/27 03:31:50;;;;;;;;;;;9.70;99.90;;;;;;5055308;28;19962;-88
2023/10/27 03:34:16;;;;;;;;;;;10.10;99.90;;;;;;5059669;28;19965;-89
2023/10/27 03:36:42;;;;;;;;;;;9.60;99.90;;;;;;5088006;28;19923;-90
2023/10/27 03:39:07;;;;;;;;;;;9.50;99.90;;;;;;5042361;28;19974;-92
2023/10/27 03:41:33;;;;;;;;;;;9.60;99.90;;;;;;5076509;28;19926;-89
2023/10/27 03:43:58;;;;;;;;;;;9.60;99.90;;;;;;5059368;28;20018;-88
2023/10/27 03:46:24;;;;;;;;;;;9.70;99.90;;;;;;5043283;28;19930;-90
2023/10/27 03:48:49;;;;;;;;;;;9.50;99.90;;;;;;5067226;28;19920;-90
2023/10/27 03:51:18;;;;;;;;;;;9.60;99.90;;;;;;5083623;28;20003;-93
2023/10/27 03:53:43;;;;;;;;;;;9.50;99.90;;;;;;5065862;28;19920;-86
2023/10/27 03:56:09;;;;;;;;;;;9.90;99.90;;;;;;5045880;28;19943;-89
2023/10/27 03:58:35;;;;;;;;;;;9.80;99.90;;;;;;5065537;28;19943;-95
2023/10/27 04:01:01;;;;;;;;;;;9.60;99.90;;;;;;5069264;28;19920;-92
2023/10/27 04:03:26;;;;;;;;;;;9.60;99.90;;;;;;5072643;28;19927;-93
2023/10/27 04:05:52;;;;;;;;;;;9.50;99.90;;;;;;5050229;28;19924;-90
2023/10/27 04:08:17;;;;;;;;;;;9.60;99.90;;;;;;5067577;28;19931;-86
2023/10/27 04:10:43;;;;;;;;;;;8.40;99.90;;;;;;5051650;28;19924;-93
2023/10/27 04:13:09;;;;;;;;;;;9.50;99.90;;;;;;5060331;28;19955;-88
2023/10/27 04:15:34;;;;;;;;;;;9.50;99.90;;;;;;5047370;28;20326;-90
2023/10/27 04:18:00;;;;;;;;;;;10.60;99.90;;;;;;5067363;28;19924;-86
2023/10/27 04:20:26;;;;;;;;;;;9.50;99.90;;;;;;5083651;28;19920;-88
2023/10/27 04:22:51;;;;;;;;;;;9.40;99.90;;;;;;5080670;28;19920;-87
2023/10/27 04:25:17;;;;;;;;;;;9.40;99.90;;;;;;5063872;28;19997;-94
2023/10/27 04:27:46;;;;;;;;;;;;;;;;;;5049209;28;19927;-90
2023/10/27 04:30:13;;;;;;;;;;;9.30;99.90;;;;;;5082524;28;19928;-90
2023/10/27 04:32:39;;;;;;;;;;;9.30;99.90;;;;;;5064003;28;19931;-86
2023/10/27 04:35:05;;;;;;;;;;;9.30;99.90;;;;;;5063629;28;19920;-89
2023/10/27 04:37:32;;;;;;;;;;;9.20;99.90;;;;;;5080365;28;20367;-89
2023/10/27 04:39:58;;;;;;;;;;;9.20;99.90;;;;;;5069895;28;19920;-85
2023/10/27 04:42:24;;;;;;;;;;;9.30;99.90;;;;;;5064013;28;20016;-87
2023/10/27 04:44:49;;;;;;;;;;;9.20;99.90;;;;;;5063657;28;20402;-89
2023/10/27 04:47:15;;;;;;;;;;;9.20;99.90;;;;;;5046924;28;19921;-87
2023/10/27 04:49:41;;;;;;;;;;;9.30;99.90;;;;;;5064292;28;20010;-88
2023/10/27 04:52:06;;;;;;;;;;;9.20;99.90;;;;;;5047758;28;19932;-86
2023/10/27 04:54:34;;;;;;;;;;;9.20;99.90;;;;;;5045681;28;20011;-87
2023/10/27 04:57:03;;;;;;;;;;;9.20;99.90;;;;;;5069030;28;19920;-87
2023/10/27 04:59:31;;;;;;;;;;;9.20;99.90;;;;;;5057512;28;19925;-90
2023/10/27 05:01:56;;;;;;;;;;;9.20;99.90;;;;;;5060376;28;19956;-91
2023/10/27 05:04:22;;;;;;;;;;;9.20;99.90;;;;;;5058245;28;20546;-95
2023/10/27 05:06:48;;;;;;;;;;;9.20;99.90;;;;;;5037267;28;19932;-91
2023/10/27 05:09:13;;;;;;;;;;;9.20;99.90;;;;;;5058855;28;20356;-90
2023/10/27 05:11:40;;;;;;;;;;;9.20;99.90;;;;;;5074568;28;19966;-89
2023/10/27 05:14:06;;;;;;;;;;;9.20;99.90;;;;;;5061585;28;20010;-89
2023/10/27 05:16:32;;;;;;;;;;;9.20;99.90;;;;;;5058903;28;19978;-90
2023/10/27 05:18:57;;;;;;;;;;;9.20;99.90;;;;;;5039965;28;19995;-87
2023/10/27 05:21:26;;;;;;;;;;;9.20;99.90;;;;;;5062942;28;19924;-93
2023/10/27 05:23:59;;;;;;;;;;;9.20;99.90;;;;;;5059767;28;19920;-92
2023/10/27 05:26:25;;;;;;;;;;;9.20;99.90;;;;;;5065508;28;19924;-90
2023/10/27 05:28:51;;;;;;;;;;;9.30;99.90;;;;;;5058041;28;20367;-89
2023/10/27 05:31:17;;;;;;;;;;;9.30;99.90;;;;;;5063192;28;19927;-91
2023/10/27 05:33:43;;;;;;;;;;;9.30;99.90;;;;;;5064771;28;19924;-91
2023/10/27 05:36:08;;;;;;;;;;;9.30;99.90;;;;;;5073416;28;19921;-92
2023/10/27 05:38:34;;;;;;;;;;;9.30;99.90;;;;;;5039514;28;20359;-90
2023/10/27 05:40:59;;;;;;;;;;;9.30;99.90;;;;;;5073421;28;19920;-89
2023/10/27 05:43:26;;;;;;;;;;;9.40;99.90;;;;;;5056170;28;19924;-91
2023/10/27 05:45:55;;;;;;;;;;;9.40;99.90;;;;;;5056141;28;20023;-92
2023/10/27 05:48:20;;;;;;;;;;;9.10;99.90;;;;;;5059221;28;20351;-89
2023/10/27 05:50:46;;;;;;;;;;;9.30;99.90;;;;;;5056591;28;19932;-92
2023/10/27 05:53:12;;;;;;;;;;;9.40;99.90;;;;;;5057668;28;19920;-92
2023/10/27 05:55:38;;;;;;;;;;;9.40;99.90;;;;;;5031104;28;19925;-89
2023/10/27 05:58:05;;;;;;;;;;;9.30;99.90;;;;;;5072007;28;19947;-93
2023/10/27 06:00:31;;;;;;;;;;;9.40;99.90;;;;;;5037920;28;19947;-91
2023/10/27 06:02:57;;;;;;;;;;;9.30;99.90;;;;;;5041365;28;19920;-90
2023/10/27 06:05:23;;;;;;;;;;;9.30;99.90;;;;;;5029092;28;20062;-90
2023/10/27 06:07:49;;;;;;;;;;;9.40;99.90;;;;;;5046366;28;19920;-92
2023/10/27 06:10:14;;;;;;;;;;;9.30;99.90;;;;;;5056067;28;19944;-89
2023/10/27 06:12:40;;;;;;;;;;;9.30;99.90;;;;;;5039885;28;19970;-88
2023/10/27 06:15:06;;;;;;;;;;;9.30;99.90;;;;;;5039814;28;20291;-91
2023/10/27 06:17:32;;;;;;;;;;;9.30;99.90;;;;;;5040726;28;20339;-93
2023/10/27 06:19:58;;;;;;;;;;;9.30;99.90;;;;;;5031079;28;19925;-90
2023/10/27 06:22:24;;;;;;;;;;;9.30;99.90;;;;;;5024145;28;19921;-87
2023/10/27 06:24:50;;;;;;;;;;;9.30;99.90;;;;;;5039536;28;20007;-91
2023/10/27 06:27:15;;;;;;;;;;;9.40;99.90;;;;;;5040123;28;20011;-87
2023/10/27 06:29:41;;;;;;;;;;;9.30;99.90;;;;;;5038219;28;20007;-93
2023/10/27 06:32:06;;;;;;;;;;;9.30;99.90;;;;;;5029942;28;19928;-88
2023/10/27 06:34:32;;;;;;;;;;;9.30;99.90;;;;;;5023541;28;20034;-89
2023/10/27 06:36:58;;;;;;;;;;;9.30;99.90;;;;;;5039746;28;19924;-89
2023/10/27 06:39:24;;;;;;;;;;;9.30;99.90;;;;;;5039833;28;19920;-94
2023/10/27 06:41:50;;;;;;;;;;;9.40;99.90;;;;;;5039468;28;19921;-94
2023/10/27 06:44:16;;;;;;;;;;;8.60;99.90;;;;;;5029595;28;19936;-93
2023/10/27 06:46:44;;;;;;;;;;;9.40;99.90;;;;;;5011500;28;20486;-88
2023/10/27 06:49:10;;;;;;;;;;;9.30;99.90;;;;;;5050896;28;19959;-93
2023/10/27 06:51:35;;;;;;;;;;;9.40;99.90;;;;;;5050288;28;19924;-90
2023/10/27 06:54:01;;;;;;;;;;;9.40;99.90;;;;;;5048614;28;20050;-91
2023/10/27 06:56:28;;;;;;;;;;;9.40;99.90;;;;;;5065743;28;20283;-90
2023/10/27 06:58:53;;;;;;;;;;;9.40;99.90;;;;;;5033672;28;20744;-86
2023/10/27 07:01:19;;;;;;;;;;;9.40;99.90;;;;;;5054591;28;19920;-88
2023/10/27 07:03:45;;;;;;;;;;;9.40;99.90;;;;;;5038924;28;19943;-89
2023/10/27 07:06:11;;;;;;;;;;;9.40;99.90;;;;;;5057642;28;19974;-87
2023/10/27 07:08:37;;;;;;;;;;;9.40;99.90;;;;;;5064241;28;20007;-92
2023/10/27 07:11:03;;;;;;;;;;;9.40;99.90;;;;;;5074898;28;19970;-90
2023/10/27 07:13:30;;;;;;;;;;;9.40;99.90;;;;;;5060650;28;19926;-90
2023/10/27 07:15:56;;;;;;;;;;;9.40;99.90;;;;;;5066088;28;20023;-93
2023/10/27 07:18:21;;;;;;;;;;;9.40;99.90;;;;;;5064496;28;19975;-88
2023/10/27 07:20:47;;;;;;;;;;;9.50;99.90;;;;;;5057643;28;20342;-88
2023/10/27 07:23:13;;;;;;;;;;;9.20;99.90;;;;;;5057209;28;20378;-92
2023/10/27 07:25:39;;;;;;;;;;;9.40;99.90;;;;;;5043730;28;19931;-89
2023/10/27 07:28:05;;;;;;;;;;;9.50;99.90;;;;;;5074597;28;19920;-92
2023/10/27 07:30:31;;;;;;;;;;;9.50;99.90;;;;;;5052631;28;20260;-91
2023/10/27 07:32:56;;;;;;;;;;;9.40;99.90;;;;;;5071926;28;20286;-91
2023/10/27 07:35:22;;;;;;;;;;;9.50;99.90;;;;;;5065481;28;19920;-90
2023/10/27 07:37:48;;;;;;;;;;;9.50;99.90;;;;;;5060008;28;20321;-92
2023/10/27 07:40:15;;;;;;;;;;;9.50;99.90;;;;;;5047406;28;19924;-94
2023/10/27 07:42:41;;;;;;;;;;;9.50;99.90;;;;;;5029319;28;19956;-95
2023/10/27 07:45:07;;;;;;;;;;;9.50;99.90;;;;;;5043413;28;20382;-95
2023/10/27 07:47:33;;;;;;;;;;;9.50;99.90;;;;;;5061242;28;19920;-86
2023/10/27 07:50:01;;;;;;;;;;;9.50;99.90;;;;;;5054386;28;19919;-92
2023/10/27 07:52:27;;;;;;;;;;;9.50;99.90;;;;;;5061508;28;19924;-92
2023/10/27 07:54:53;;;;;;;;;;;9.50;99.90;;;;;;5060341;28;19920;-93
2023/10/27 07:57:19;;;;;;;;;;;9.50;99.90;;;;;;5046363;28;19928;-90
2023/10/27 07:59:45;;;;;;;;;;;9.50;99.90;;;;;;5043760;28;19968;-92
2023/10/27 08:02:11;;;;;;;;;;;9.60;99.90;;;;;;5051345;28;19923;-86
2023/10/27 08:04:37;;;;;;;;;;;9.60;99.90;;;;;;5061820;28;19920;-94
2023/10/27 08:07:03;;;;;;;;;;;9.50;99.90;;;;;;5060401;28;20681;-90
2023/10/27 08:09:29;;;;;;;;;;;9.60;99.90;;;;;;5066795;28;19927;-87
2023/10/27 08:11:55;;;;;;;;;;;9.60;99.90;;;;;;5044965;28;19920;-84
2023/10/27 08:14:21;;;;;;;;;;;9.50;99.90;;;;;;5059590;28;19928;-84
2023/10/27 08:16:46;;;;;;;;;;;9.60;99.90;;;;;;5041847;28;19920;-90
2023/10/27 08:19:12;;;;;;;;;;;9.60;99.90;;;;;;5041375;28;19920;-90
2023/10/27 08:21:38;;;;;;;;;;;9.60;99.90;;;;;;5077956;28;19935;-87
2023/10/27 08:24:04;;;;;;;;;;;9.60;99.90;;;;;;5076712;28;19920;-87
2023/10/27 08:26:30;;;;;;;;;;;9.60;99.90;;;;;;5058865;28;20002;-87
2023/10/27 08:28:55;;;;;;;;;;;9.60;99.90;;;;;;5064932;28;19992;-89
2023/10/27 08:31:21;;;;;;;;;;;9.70;99.90;;;;;;5039436;28;19923;-90
2023/10/27 08:33:46;;;;;;;;;;;9.60;99.90;;;;;;5040424;28;19920;-87
2023/10/27 08:36:13;;;;;;;;;;;9.60;99.90;;;;;;5037966;28;20004;-93
2023/10/27 08:38:38;;;;;;;;;;;9.70;99.90;;;;;;5053618;28;20074;-89
2023/10/27 08:41:07;;;;;;;;;;;9.70;99.90;;;;;;5058950;28;20541;-83
2023/10/27 08:43:34;;;;;;;;;;;9.70;99.90;;;;;;5051675;28;19997;-85
2023/10/27 08:46:06;;;;;;;;;;;9.70;99.90;;;;;;5076778;28;19978;-92
2023/10/27 08:48:32;;;;;;;;;;;9.70;99.90;;;;;;5055298;28;19927;-92
2023/10/27 08:51:00;;;;;;;;;;;9.80;99.90;;;;;;5057649;28;19924;-88
2023/10/27 08:53:26;;;;;;;;;;;9.80;99.90;;;;;;5068902;28;19925;-87
2023/10/27 08:55:52;;;;;;;;;;;9.80;99.90;;;;;;5041562;28;20011;-90
2023/10/27 08:58:17;;;;;;;;;;;9.80;99.90;;;;;;5053000;28;20631;-85
2023/10/27 09:00:46;;;;;;;;;;;9.80;99.90;;;;;;5061399;28;20317;-88
2023/10/27 09:03:16;;;;;;;;;;;9.80;99.90;;;;;;5062872;28;20007;-89
2023/10/27 09:05:44;;;;;;;;;;;9.80;99.90;;;;;;5057562;28;20391;-90
2023/10/27 09:08:10;;;;;;;;;;;9.90;99.90;;;;;;5038730;28;19920;-93
2023/10/27 09:10:36;;;;;;;;;;;9.90;99.90;;;;;;5064247;28;19927;-85
2023/10/27 09:13:04;;;;;;;;;;;9.90;99.90;;;;;;5059658;28;19963;-89
2023/10/27 09:15:45;;;;;;;;;;;9.90;99.90;;;;;;5057090;28;19920;-94
2023/10/27 09:18:11;;;;;;;;;;;10.00;99.90;;;;;;5057455;28;20244;-89
2023/10/27 09:20:48;;;;;;;;;;;10.10;99.90;;;;;;5059545;28;19924;-88
2023/10/27 09:23:13;;;;;;;;;;;10.10;99.90;;;;;;5078534;28;20536;-89
2023/10/27 09:25:39;;;;;;;;;;;10.20;99.90;;;;;;5071459;28;19971;-88
2023/10/27 09:28:05;;;;;;;;;;;10.20;99.90;;;;;;5046748;28;19925;-88
2023/10/27 09:30:37;;;;;;;;;;;10.20;99.90;;;;;;5059838;28;19978;-88
2023/10/27 09:33:12;;;;;;;;;;;10.30;99.90;;;;;;5055488;28;19927;-87
2023/10/27 09:35:38;;;;;;;;;;;10.30;99.90;;;;;;5075925;28;19928;-91
2023/10/27 09:38:04;;;;;;;;;;;10.30;99.90;;;;;;5051215;28;19920;-91
2023/10/27 09:40:30;;;;;;;;;;;11.00;99.90;;;;;;5075554;28;20019;-87
2023/10/27 09:42:58;;;;;;;;;;;10.40;99.90;;;;;;5048363;28;19985;-86
2023/10/27 09:45:27;;;;;;;;;;;10.70;99.90;;;;;;5065086;28;19928;-88
2023/10/27 09:47:58;;;;;;;;;;;10.60;99.90;;;;;;5061905;28;19942;-90
2023/10/27 09:50:26;;;;;;;;;;;11.20;99.90;;;;;;5067372;28;20288;-89
2023/10/27 09:52:54;;;;;;;;;;;10.50;99.90;;;;;;5076262;28;19924;-91
2023/10/27 09:55:20;;;;;;;;;;;10.50;99.90;;;;;;5058098;28;19927;-86
2023/10/27 09:57:46;;;;;;;;;;;10.50;99.90;;;;;;5062824;28;19982;-89
2023/10/27 10:00:23;;;;;;;;;;;10.50;99.90;;;;;;5035882;28;19925;-88
2023/10/27 10:02:49;;;;;;;;;;;10.60;99.90;;;;;;5067011;28;19966;-89
2023/10/27 10:05:14;;;;;;;;;;;10.60;99.90;;;;;;5058717;28;20379;-87
2023/10/27 10:07:54;;;;;;;;;;;10.30;99.90;;;;;;5059676;28;20412;-87
2023/10/27 10:10:35;;;;;;;;;;;10.60;99.90;;;;;;5058103;28;20003;-87
2023/10/27 10:13:00;;;;;;;;;;;10.70;99.90;;;;;;5059169;28;19920;-86
2023/10/27 10:15:27;;;;;;;;;;;10.60;99.90;;;;;;5075508;28;19927;-87
2023/10/27 10:17:53;;;;;;;;;;;10.70;99.90;;;;;;5069724;28;19927;-90
2023/10/27 10:20:57;;;;;;;;;;;10.60;99.90;;;;;;5059426;28;19920;-90
2023/10/27 10:23:25;;;;;;;;;;;10.60;99.90;;;;;;4969011;28;19925;-88
2023/10/27 10:25:54;;;;;;;;;;;10.60;99.90;;;;;;4977971;28;19925;-94
2023/10/27 10:28:20;;;;;;;;;;;10.60;99.90;;;;;;5012409;28;20380;-93
2023/10/27 10:30:46;;;;;;;;;;;10.60;99.90;;;;;;5059026;28;19920;-92
2023/10/27 10:33:28;;;;;;;;;;;10.60;99.90;;;;;;5059390;28;19920;-89
2023/10/27 10:36:14;;;;;;;;;;;10.60;99.90;;;;;;5055814;28;20358;-91
2023/10/27 10:38:40;;;;;;;;;;;10.60;99.90;;;;;;5061550;28;19950;-85
2023/10/27 10:41:06;;;;;;;;;;;10.60;99.90;;;;;;5047484;28;20162;-91
2023/10/27 10:43:40;;;;;;;;;;;10.50;99.90;;;;;;5043411;28;19999;-93
2023/10/27 10:46:07;;;;;;;;;;;10.60;99.90;;;;;;5053977;28;19931;-87
2023/10/27 10:48:34;;;;;;;;;;;10.80;99.90;;;;;;5053023;28;19920;-86
2023/10/27 10:51:04;;;;;;;;;;;10.50;99.90;;;;;;5061977;28;20361;-86
2023/10/27 10:53:30;;;;;;;;;;;10.50;99.90;;;;;;5082851;28;19924;-93
2023/10/27 10:55:57;;;;;;;;;;;10.50;99.90;;;;;;5054858;28;20019;-89
2023/10/27 10:58:29;;;;;;;;;;;10.50;99.90;;;;;;5056112;28;20029;-89
2023/10/27 11:00:56;;;;;;;;;;;10.50;99.90;;;;;;5068310;28;19920;-87
2023/10/27 11:03:23;;;;;;;;;;;10.50;99.90;;;;;;5057425;28;19927;-84
2023/10/27 11:05:52;;;;;;;;;;;10.40;99.90;;;;;;5060224;28;20102;-91
2023/10/27 11:08:24;;;;;;;;;;;10.40;99.90;;;;;;5039650;28;19920;-91
2023/10/27 11:10:59;;;;;;;;;;;10.40;99.90;;;;;;5059077;28;19959;-86
2023/10/27 11:13:25;;;;;;;;;;;10.40;99.90;;;;;;5083522;28;20012;-92
2023/10/27 11:15:51;;;;;;;;;;;10.40;99.90;;;;;;5070821;28;20010;-90
2023/10/27 11:18:17;;;;;;;;;;;10.40;99.90;;;;;;5039906;28;19923;-86
2023/10/27 11:20:43;;;;;;;;;;;10.40;99.90;;;;;;5068579;28;19921;-91
2023/10/27 11:23:10;;;;;;;;;;;10.40;99.90;;;;;;5051836;28;19963;-92
2023/10/27 11:25:36;;;;;;;;;;;10.40;99.90;;;;;;5071622;28;19924;-89
2023/10/27 11:28:17;;;;;;;;;;;10.40;99.90;;;;;;5056832;28;20372;-91
2023/10/27 11:30:42;;;;;;;;;;;10.40;99.90;;;;;;5072789;28;20350;-86
2023/10/27 11:33:08;;;;;;;;;;;10.40;99.90;;;;;;5067252;28;19967;-91
2023/10/27 11:35:44;;;;;;;;;;;10.50;99.90;;;;;;5100187;28;19927;-94
2023/10/27 11:38:10;;;;;;;;;;;10.40;99.90;;;;;;5053379;28;20029;-93
2023/10/27 11:40:35;;;;;;;;;;;10.50;99.90;;;;;;5049339;28;20032;-88
2023/10/27 11:43:01;;;;;;;;;;;10.40;99.90;;;;;;5072011;28;19924;-92
2023/10/27 11:45:26;;;;;;;;;;;10.40;99.90;;;;;;5036946;28;19932;-88
2023/10/27 11:47:52;;;;;;;;;;;10.40;99.90;;;;;;5049534;28;19942;-89
2023/10/27 11:50:18;;;;;;;;;;;10.40;99.90;;;;;;5042265;28;19970;-87
2023/10/27 11:52:43;;;;;;;;;;;10.40;99.90;;;;;;5054452;28;19924;-89
2023/10/27 11:55:09;;;;;;;;;;;10.40;99.90;;;;;;5035222;28;19927;-87
2023/10/27 11:57:36;;;;;;;;;;;10.40;99.90;;;;;;5036141;28;20445;-91
2023/10/27 12:00:02;;;;;;;;;;;10.50;99.90;;;;;;5039161;28;19920;-89
2023/10/27 12:02:28;;;;;;;;;;;10.50;99.90;;;;;;5064092;28;19924;-86
2023/10/27 12:04:53;;;;;;;;;;;10.40;99.90;;;;;;5057657;28;20006;-91
2023/10/27 12:07:19;;;;;;;;;;;10.40;99.90;;;;;;5075666;28;19920;-93
2023/10/27 12:09:45;;;;;;;;;;;10.40;99.90;;;;;;5045200;28;19943;-90
2023/10/27 12:12:10;;;;;;;;;;;10.40;99.90;;;;;;5046509;28;19920;-87
2023/10/27 12:14:37;;;;;;;;;;;10.40;99.90;;;;;;5057961;28;20443;-89
2023/10/27 12:17:05;;;;;;;;;;;10.40;99.90;;;;;;5060729;28;20317;-87
2023/10/27 12:19:31;;;;;;;;;;;10.40;99.90;;;;;;5047162;28;19921;-86
2023/10/27 12:21:57;;;;;;;;;;;10.40;99.90;;;;;;5047997;28;20375;-88
2023/10/27 12:24:23;;;;;;;;;;;10.40;99.90;;;;;;5085936;28;20081;-85
2023/10/27 12:26:49;;;;;;;;;;;10.40;99.90;;;;;;5041898;28;20422;-89
2023/10/27 12:29:15;;;;;;;;;;;10.40;99.90;;;;;;5057794;28;19928;-91
2023/10/27 12:31:41;;;;;;;;;;;10.40;99.90;;;;;;5081414;28;19972;-93
2023/10/27 12:34:10;;;;;;;;;;;10.40;99.90;;;;;;5063130;28;19920;-91
2023/10/27 12:36:36;;;;;;;;;;;10.40;99.90;;;;;;5077575;28;19924;-87
2023/10/27 12:39:02;;;;;;;;;;;10.50;99.90;;;;;;5025425;28;19927;-91
2023/10/27 12:41:30;;;;;;;;;;;10.50;99.90;;;;;;5061043;28;19990;-89
2023/10/27 12:43:56;;;;;;;;;;;10.50;99.90;;;;;;5033343;28;19924;-85
2023/10/27 12:46:22;;;;;;;;;;;10.30;99.90;;;;;;5036213;28;20023;-86
2023/10/27 12:48:48;;;;;;;;;;;10.40;99.90;;;;;;5064549;28;20364;-87
2023/10/27 12:51:15;;;;;;;;;;;10.50;99.90;;;;;;5052466;28;20027;-86
2023/10/27 12:53:43;;;;;;;;;;;10.50;99.90;;;;;;5065961;28;19923;-90
2023/10/27 12:56:08;;;;;;;;;;;10.50;99.90;;;;;;5065492;28;19924;-91
2023/10/27 12:58:34;;;;;;;;;;;10.50;99.90;;;;;;5077395;28;20049;-89
2023/10/27 13:01:01;;;;;;;;;;;10.60;99.90;;;;;;5063264;28;20006;-92
2023/10/27 13:03:27;;;;;;;;;;;10.50;99.90;;;;;;5062436;28;19919;-89
2023/10/27 13:05:53;;;;;;;;;;;10.50;99.90;;;;;;5068215;28;20008;-83
2023/10/27 13:08:18;;;;;;;;;;;10.50;99.90;;;;;;5077175;28;20945;-85
2023/10/27 13:10:44;;;;;;;;;;;10.50;99.90;;;;;;5065774;28;20294;-86
2023/10/27 13:13:12;;;;;;;;;;;10.90;99.90;;;;;;5062818;28;19959;-89
2023/10/27 13:15:38;;;;;;;;;;;10.50;99.90;;;;;;5066954;28;20809;-91
2023/10/27 13:18:04;;;;;;;;;;;10.50;99.90;;;;;;5066104;28;19970;-87
2023/10/27 13:20:30;;;;;;;;;;;10.50;99.90;;;;;;5069876;28;19932;-90
2023/10/27 13:22:56;;;;;;;;;;;10.50;99.90;;;;;;5076864;28;20375;-88
2023/10/27 13:25:21;;;;;;;;;;;10.10;99.90;;;;;;5068225;28;19963;-87
2023/10/27 13:27:48;;;;;;;;;;;10.40;99.90;;;;;;5081201;28;19920;-93
2023/10/27 13:30:17;;;;;;;;;;;10.50;99.90;;;;;;5062592;28;19995;-91
2023/10/27 13:32:46;;;;;;;;;;;10.50;99.90;;;;;;5066070;28;20403;-91
2023/10/27 13:35:11;;;;;;;;;;;10.40;99.90;;;;;;5077363;28;19921;-88
2023/10/27 13:37:37;;;;;;;;;;;10.40;99.90;;;;;;5064411;28;19920;-95
2023/10/27 13:40:03;;;;;;;;;;;10.40;99.90;;;;;;5067778;28;19927;-92
2023/10/27 13:42:29;;;;;;;;;;;10.40;99.90;;;;;;5063896;28;19974;-92
2023/10/27 13:44:55;;;;;;;;;;;10.90;99.90;;;;;;5063075;28;19924;-88
2023/10/27 13:47:22;;;;;;;;;;;10.50;99.90;;;;;;5058179;28;19920;-88
2023/10/27 13:49:55;;;;;;;;;;;10.30;99.90;;;;;;5059075;28;19924;-84
2023/10/27 13:52:21;;;;;;;;;;;10.40;99.90;;;;;;5064629;28;19951;-92
2023/10/27 13:54:47;;;;;;;;;;;10.40;99.90;;;;;;5058259;28;20002;-85
2023/10/27 13:57:14;;;;;;;;;;;10.40;99.90;;;;;;5081015;28;19971;-85
2023/10/27 13:59:40;;;;;;;;;;;10.40;99.90;;;;;;5044300;28;20589;-87
2023/10/27 14:02:06;;;;;;;;;;;10.30;99.90;;;;;;5046842;28;19924;-89
2023/10/27 14:04:31;;;;;;;;;;;10.30;99.90;;;;;;5077386;28;19927;-91
2023/10/27 14:06:57;;;;;;;;;;;10.40;99.90;;;;;;5067689;28;20371;-85
2023/10/27 14:09:23;;;;;;;;;;;10.30;99.90;;;;;;5036319;28;19932;-80
2023/10/27 14:11:49;;;;;;;;;;;10.40;99.90;;;;;;5047144;28;19920;-92
2023/10/27 14:14:15;;;;;;;;;;;9.90;99.90;;;;;;5062526;28;19920;-92
2023/10/27 14:16:42;;;;;;;;;;;10.30;99.90;;;;;;5059187;28;20020;-91
2023/10/27 14:19:08;;;;;;;;;;;10.30;99.90;;;;;;5056994;28;19924;-90
2023/10/27 14:21:38;;;;;;;;;;;10.30;99.90;;;;;;5059157;28;19920;-89